Cape Mohican — WDOP — position and weather

sailwx.info

Track history (hours):
 
Tides and Currents Weather Stations Pressure Air Temp Water Temp Dewpoint Dewpoint Depression Visibility Wind Speed Wind Dir Waves Ship Positions

Cape Mohican

Owner: MARITIME ADMINISTRATION, RALEIGH, NC. More information available from US FCC via Universal Licensing System and Coast Guard Vessel Documentation Center.

Last reported at 2014-Aug-21 20:08 UTC. Time now 2014-Nov-28 08:37 UTC.
Position N 37°46' W 122°18'.
Warning: this ship's position is months out of date.

Length 180 m; draft 9.1 m.

Type: Ship. MMSI: 366386000.

Date/timePositionNaut miles runAvg speedWind from/ knotsBaromVisibWave heightAir tempDewpointWater temp
2014-Aug-21 20:08N 37°46' W 122°18'0 0.0
2014-Aug-21 19:33N 37°46' W 122°18'0 0.0
2014-Aug-21 18:33N 37°46' W 122°18'0 0.1
2014-Aug-21 17:33N 37°46' W 122°18'6 5.7
2014-Aug-21 16:33N 37°49' W 122°25'1413.5
2014-Aug-21 15:32N 37°44' W 122°41'1413.9
2014-Aug-21 14:33N 37°36' W 122°55'1514.4
2014-Aug-21 13:32N 37°29' W 123°11'1313.0
2014-Aug-21 12:33N 37°22' W 123°24'5 4.6
2014-Aug-21 11:33N 37°20' W 123°29'11 8.7
2014-Aug-21 10:18N 37°26' W 123°41'2010.4
2014-Aug-21 08:22N 37°43' W 123°53'1113.5
2014-Aug-21 07:32N 37°51' W 124°03'4 3.5
2014-Aug-21 06:20N 37°54' W 124°07'1013.1
2014-Aug-21 05:33N 37°47' W 123°58'1313.0
2014-Aug-21 04:33N 37°38' W 123°45'2512.2
2014-Aug-21 02:30N 37°20' W 123°25'1212.8
2014-Aug-21 01:32N 37°08' W 123°19'1111.7
2014-Aug-21 00:33N 37°18' W 123°25'1713.2
2014-Aug-20 23:18N 37°30' W 123°40'9095.1
2014-Aug-20 22:20N 36°16' W 124°46'8317.1
2014-Aug-20 17:31N 37°37' W 124°26'9 7.0
2014-Aug-20 16:11N 37°30' W 124°18'2012.3
2014-Aug-20 14:32N 37°18' W 123°58'2612.5
2014-Aug-20 12:26N 37°40' W 124°15'1814.9
2014-Aug-20 11:15N 37°55' W 124°28'1414.5
2014-Aug-20 10:18N 38°06' W 124°38'9 3.2
2014-Aug-20 07:19N 38°11' W 124°48'1013.0
2014-Aug-20 06:31N 38°02' W 124°41'1312.8
2014-Aug-20 05:31N 37°52' W 124°32'1515.0
2014-Aug-20 04:32N 37°39' W 124°21'1818.0
2014-Aug-20 03:33N 37°25' W 124°09'1818.2
2014-Aug-20 02:33N 37°10' W 123°56'1818.5
2014-Aug-20 01:33N 36°55' W 123°43'7 6.7
2014-Aug-20 00:33N 36°50' W 123°37'1918.9
2014-Aug-19 23:33N 37°06' W 123°50'2319.5
2014-Aug-19 22:21N 37°26' W 124°04'3419.2
2014-Aug-19 20:33N 37°55' W 124°28'1110.8
2014-Aug-19 19:30N 37°46' W 124°19'1111.3
2014-Aug-19 18:33N 37°39' W 124°10'1311.5
2014-Aug-19 17:26N 37°30' W 123°57'1512.9
2014-Aug-19 16:18N 37°21' W 123°42'810.8
2014-Aug-19 15:33N 37°16' W 123°35'1515.0
2014-Aug-19 14:32N 37°27' W 123°48'2015.3
2014-Aug-19 13:15N 37°43' W 124°03'1415.1
2014-Aug-19 12:18N 37°54' W 124°14'1215.1
2014-Aug-19 11:31N 38°03' W 124°24'19 9.6
2014-Aug-19 09:32N 37°49' W 124°08'1713.9
2014-Aug-19 08:20N 37°37' W 123°54'1114.1
2014-Aug-19 07:32N 37°29' W 123°44'1313.5
2014-Aug-19 06:32N 37°18' W 123°34'1616.0
2014-Aug-19 05:33N 37°03' W 123°29'1717.4
2014-Aug-19 04:33N 36°46' W 123°23'1817.4
2014-Aug-19 03:32N 36°29' W 123°17'1717.2
2014-Aug-19 02:33N 36°12' W 123°12'1512.6
2014-Aug-19 01:21N 36°27' W 123°18'1417.6
2014-Aug-19 00:33N 36°41' W 123°21'1917.6
2014-Aug-18 23:30N 36°59' W 123°26'1917.5
2014-Aug-18 22:24N 37°18' W 123°31'1414.9
2014-Aug-18 21:29N 37°27' W 123°18'1212.5
2014-Aug-18 20:33N 37°33' W 123°06'1211.9
2014-Aug-18 19:33N 37°40' W 122°53'1110.8
2014-Aug-18 18:33N 37°45' W 122°41'1010.0
2014-Aug-18 17:33N 37°49' W 122°30'4 4.2
2014-Aug-18 16:33N 37°50' W 122°25'5 4.6
2014-Aug-18 15:33N 37°47' W 122°21'2 2.1
2014-Aug-18 14:33N 37°46' W 122°18'0 0.2
2014-Aug-18 13:33N 37°46' W 122°18'0 0.0
2014-Aug-18 12:33N 37°46' W 122°18'0 0.0
2014-Aug-18 11:33N 37°46' W 122°18'0 0.0
2014-Aug-18 10:33N 37°46' W 122°18'0 0.0
2014-Aug-18 09:33N 37°46' W 122°18'0 0.0
2014-Aug-18 08:33N 37°46' W 122°18'0 0.0
2014-Aug-18 07:33N 37°46' W 122°18'0 0.0
2014-Aug-18 06:33N 37°46' W 122°18'0 0.0
2014-Aug-18 05:33N 37°46' W 122°18'0 0.0
2014-Aug-18 04:33N 37°46' W 122°18'0 0.0
2014-Aug-18 03:33N 37°46' W 122°18'0 0.0
2014-Aug-18 02:33N 37°46' W 122°18'0 0.0
2014-Aug-18 01:33N 37°46' W 122°18'0 0.0
2014-Aug-18 00:33N 37°46' W 122°18'0 0.0
2014-Aug-17 18:33N 37°46' W 122°18'0 0.0
2014-Aug-17 17:33N 37°46' W 122°18'0 0.0
2014-Aug-17 16:33N 37°46' W 122°18'0 0.0
2014-Aug-17 15:33N 37°46' W 122°18'0 0.0
2014-Aug-17 14:33N 37°46' W 122°18'0 0.0
2014-Aug-17 13:33N 37°46' W 122°18'0 0.0
2014-Aug-17 12:33N 37°46' W 122°18'0 0.0
2014-Aug-17 11:33N 37°46' W 122°18'0 0.0
2014-Aug-17 10:33N 37°46' W 122°18'0 0.0
2014-Aug-17 09:33N 37°46' W 122°18'0 0.0
2014-Aug-17 08:33N 37°46' W 122°18'0 0.0
2014-Aug-17 07:33N 37°46' W 122°18'0 0.0
2014-Aug-17 06:33N 37°46' W 122°18'0 0.0
2014-Aug-17 05:33N 37°46' W 122°18'0 0.0
2014-Aug-17 04:33N 37°46' W 122°18'0 0.0
2014-Aug-17 03:33N 37°46' W 122°18'0 0.0
2014-Aug-17 02:33N 37°46' W 122°18'0 0.0
2014-Aug-17 01:33N 37°46' W 122°18'0 0.0
2014-Aug-17 00:33N 37°46' W 122°18'0 0.0
2014-Aug-16 23:33N 37°46' W 122°18'0 0.0
2014-Aug-16 22:33N 37°46' W 122°18'0 0.0
2014-Aug-16 21:33N 37°46' W 122°18'0 0.0
2014-Aug-16 20:33N 37°46' W 122°18'0 0.0
2014-Aug-16 19:33N 37°46' W 122°18'0 0.0
2014-Aug-16 18:33N 37°46' W 122°18'0 0.0
2014-Aug-16 17:33N 37°46' W 122°18'0 0.0
2014-Aug-16 16:33N 37°46' W 122°18'0 0.0
2014-Aug-16 15:33N 37°46' W 122°18'0 0.0
2014-Aug-16 14:33N 37°46' W 122°18'0 0.0
2014-Aug-16 13:33N 37°46' W 122°18'0 0.0
2014-Aug-16 12:33N 37°46' W 122°18'0 0.0
2014-Aug-16 11:33N 37°46' W 122°18'0 0.0
2014-Aug-16 10:33N 37°46' W 122°18'0 0.0
2014-Aug-16 09:33N 37°46' W 122°18'0 0.0
2014-Aug-16 08:33N 37°46' W 122°18'0 0.0
2014-Aug-16 07:33N 37°46' W 122°18'0 0.0
2014-Aug-16 06:33N 37°46' W 122°18'0 0.0
2014-Aug-16 05:33N 37°46' W 122°18'0 0.0
2014-Aug-16 04:33N 37°46' W 122°18'0 0.0
2014-Aug-16 03:33N 37°46' W 122°18'0 0.0
2014-Aug-16 02:33N 37°46' W 122°18'0 0.0
2014-Aug-16 01:33N 37°46' W 122°18'0 0.0
2014-Aug-16 00:33N 37°46' W 122°18'0 0.0
2014-Aug-15 23:33N 37°46' W 122°18'0 0.0
2014-Aug-15 22:33N 37°46' W 122°18'0 0.0
2014-Aug-15 21:33N 37°46' W 122°18'0 0.0
2014-Aug-15 20:33N 37°46' W 122°18'0 0.0
2014-Aug-15 19:33N 37°46' W 122°18'0 0.0
2014-Aug-15 18:33N 37°46' W 122°18'0 0.0
2014-Aug-15 17:33N 37°46' W 122°18'0 0.0
2014-Aug-15 16:33N 37°46' W 122°18'0 0.0
2014-Aug-15 15:33N 37°46' W 122°18'0 0.0
2014-Aug-15 14:33N 37°46' W 122°18'0 0.0
2014-Aug-15 13:33N 37°46' W 122°18'0 0.0
2014-Aug-15 12:33N 37°46' W 122°18'0 0.0
2014-Aug-15 11:33N 37°46' W 122°18'0 0.0
2014-Aug-15 10:33N 37°46' W 122°18'0 0.0
2014-Aug-15 09:33N 37°46' W 122°18'0 0.0
2014-Aug-15 08:33N 37°46' W 122°18'0 0.0
2014-Aug-15 07:33N 37°46' W 122°18'0 0.0
2014-Aug-15 06:33N 37°46' W 122°18'0 0.0
2014-Aug-15 05:33N 37°46' W 122°18'0 0.0
2014-Aug-15 04:33N 37°46' W 122°18'0 0.0
2014-Aug-15 03:33N 37°46' W 122°18'0 0.0
2014-Aug-15 02:33N 37°46' W 122°18'0 0.0
2014-Aug-15 01:33N 37°46' W 122°18'0 0.0
2014-Aug-15 00:33N 37°46' W 122°18'0 0.0
2014-Aug-14 23:33N 37°46' W 122°18'0 0.0
2014-Aug-14 22:33N 37°46' W 122°18'0 0.0
2014-Aug-14 21:33N 37°46' W 122°18'0 0.0
2014-Aug-14 20:33N 37°46' W 122°18'0 0.0
2014-Aug-14 19:33N 37°46' W 122°18'0 0.0
2014-Aug-14 18:33N 37°46' W 122°18'0 0.0
2014-Aug-14 17:33N 37°46' W 122°18'0 0.0
2014-Aug-14 16:33N 37°46' W 122°18'0 0.0
2014-Aug-14 15:33N 37°46' W 122°18'0 0.0
2014-Aug-14 14:33N 37°46' W 122°18'0 0.0
2014-Aug-14 13:33N 37°46' W 122°18'0 0.0
2014-Aug-14 12:33N 37°46' W 122°18'0 0.0
2014-Aug-14 11:33N 37°46' W 122°18'0 0.0
2014-Aug-14 10:33N 37°46' W 122°18'0 0.0
2014-Aug-14 09:33N 37°46' W 122°18'0 0.0
2014-Aug-14 08:33N 37°46' W 122°18'0 0.0
2014-Aug-14 07:33N 37°46' W 122°18'0 0.0
2014-Aug-14 06:33N 37°46' W 122°18'0 0.0
2014-Aug-14 05:33N 37°46' W 122°18'0 0.0
2014-Aug-14 04:33N 37°46' W 122°18'0 0.0
2014-Aug-14 03:33N 37°46' W 122°18'0 0.0
2014-Aug-14 02:33N 37°46' W 122°18'0 0.0
2014-Aug-14 01:33N 37°46' W 122°18'0 0.0
2014-Aug-14 00:33N 37°46' W 122°18'0 0.0
2014-Aug-13 23:33N 37°46' W 122°18'0 0.0
2014-Aug-13 22:33N 37°46' W 122°18'0 0.0
2014-Aug-13 21:33N 37°46' W 122°18'0 0.0
2014-Aug-13 20:33N 37°46' W 122°18'0 0.0
2014-Aug-13 19:33N 37°46' W 122°18'0 0.0
2014-Aug-13 18:33N 37°46' W 122°18'0 0.0
2014-Aug-13 17:33N 37°46' W 122°18'0 0.0
2014-Aug-13 16:33N 37°46' W 122°18'0 0.0
2014-Aug-13 15:33N 37°46' W 122°18'0 0.0
2014-Aug-13 14:33N 37°46' W 122°18'0 0.0
2014-Aug-13 13:33N 37°46' W 122°18'0 0.0
2014-Aug-13 12:33N 37°46' W 122°18'0 0.0
2014-Aug-13 11:33N 37°46' W 122°18'0 0.0
2014-Aug-13 10:33N 37°46' W 122°18'0 0.0
2014-Aug-13 09:33N 37°46' W 122°18'0 0.0
2014-Aug-13 08:33N 37°46' W 122°18'0 0.0
2014-Aug-13 07:33N 37°46' W 122°18'0 0.0
2014-Aug-13 06:33N 37°46' W 122°18'0 0.0
2014-Aug-13 05:33N 37°46' W 122°18'0 0.0
2014-Aug-13 04:33N 37°46' W 122°18'0 0.0
2014-Aug-13 03:33N 37°46' W 122°18'0 0.0
2014-Aug-13 02:33N 37°46' W 122°18'0 0.0
2014-Aug-13 01:33N 37°46' W 122°18'0 0.0
2014-Aug-13 00:33N 37°46' W 122°18'0 0.0
2014-Aug-12 23:33N 37°46' W 122°18'0 0.0
2014-Aug-12 22:33N 37°46' W 122°18'0 0.0
2014-Aug-12 21:33N 37°46' W 122°18'0 0.0
2014-Aug-12 20:33N 37°46' W 122°18'0 0.0
2014-Aug-12 19:33N 37°46' W 122°18'0 0.0
2014-Aug-12 18:33N 37°46' W 122°18'0 0.0
2014-Aug-12 17:33N 37°46' W 122°18'0 0.0
2014-Aug-12 16:33N 37°46' W 122°18'0 0.0
2014-Aug-12 15:33N 37°46' W 122°18'0 0.0
2014-Aug-12 14:33N 37°46' W 122°18'0 0.0
2014-Aug-12 13:33N 37°46' W 122°18'0 0.0
2014-Aug-12 12:33N 37°46' W 122°18'0 0.0
2014-Aug-12 11:33N 37°46' W 122°18'0 0.0
2014-Aug-12 10:33N 37°46' W 122°18'0 0.0
2014-Aug-12 09:33N 37°46' W 122°18'0 0.0
2014-Aug-12 08:33N 37°46' W 122°18'0 0.0
2014-Aug-12 07:33N 37°46' W 122°18'0 0.0
2014-Aug-12 06:33N 37°46' W 122°18'0 0.0
2014-Aug-12 05:33N 37°46' W 122°18'0 0.0
2014-Aug-12 04:33N 37°46' W 122°18'0 0.0
2014-Aug-12 03:33N 37°46' W 122°18'0 0.0
2014-Aug-12 02:33N 37°46' W 122°18'0 0.0
2014-Aug-12 01:33N 37°46' W 122°18'0 0.0
2014-Aug-12 00:33N 37°46' W 122°18'0 0.0
2014-Aug-11 23:33N 37°46' W 122°18'0 0.0
2014-Aug-11 22:33N 37°46' W 122°18'0 0.0
2014-Aug-11 21:33N 37°46' W 122°18'0 0.0
2014-Aug-11 20:33N 37°46' W 122°18'  
Track history (hours):
 
Tides and Currents Weather Stations Pressure Air Temp Water Temp Dewpoint Dewpoint Depression Visibility Wind Speed Wind Dir Waves Ship Positions

Cape Mohican

Owner: MARITIME ADMINISTRATION, RALEIGH, NC. More information available from US FCC via Universal Licensing System and Coast Guard Vessel Documentation Center.

Last reported at 2014-Aug-21 20:08 UTC. Time now 2014-Nov-28 08:37 UTC.
Position N 37°46' W 122°18'.
Warning: this ship's position is months out of date.

Length 180 m; draft 9.1 m.

Type: Ship. MMSI: 366386000.

Date/timePositionNaut miles runAvg speedWind from/ knotsBaromVisibWave heightAir tempDewpointWater temp
2014-Aug-21 20:08N 37°46' W 122°18'0 0.0
2014-Aug-21 19:33N 37°46' W 122°18'0 0.0
2014-Aug-21 18:33N 37°46' W 122°18'0 0.1
2014-Aug-21 17:33N 37°46' W 122°18'6 5.7
2014-Aug-21 16:33N 37°49' W 122°25'1413.5
2014-Aug-21 15:32N 37°44' W 122°41'1413.9
2014-Aug-21 14:33N 37°36' W 122°55'1514.4
2014-Aug-21 13:32N 37°29' W 123°11'1313.0
2014-Aug-21 12:33N 37°22' W 123°24'5 4.6
2014-Aug-21 11:33N 37°20' W 123°29'11 8.7
2014-Aug-21 10:18N 37°26' W 123°41'2010.4
2014-Aug-21 08:22N 37°43' W 123°53'1113.5
2014-Aug-21 07:32N 37°51' W 124°03'4 3.5
2014-Aug-21 06:20N 37°54' W 124°07'1013.1
2014-Aug-21 05:33N 37°47' W 123°58'1313.0
2014-Aug-21 04:33N 37°38' W 123°45'2512.2
2014-Aug-21 02:30N 37°20' W 123°25'1212.8
2014-Aug-21 01:32N 37°08' W 123°19'1111.7
2014-Aug-21 00:33N 37°18' W 123°25'1713.2
2014-Aug-20 23:18N 37°30' W 123°40'9095.1
2014-Aug-20 22:20N 36°16' W 124°46'8317.1
2014-Aug-20 17:31N 37°37' W 124°26'9 7.0
2014-Aug-20 16:11N 37°30' W 124°18'2012.3
2014-Aug-20 14:32N 37°18' W 123°58'2612.5
2014-Aug-20 12:26N 37°40' W 124°15'1814.9
2014-Aug-20 11:15N 37°55' W 124°28'1414.5
2014-Aug-20 10:18N 38°06' W 124°38'9 3.2
2014-Aug-20 07:19N 38°11' W 124°48'1013.0
2014-Aug-20 06:31N 38°02' W 124°41'1312.8
2014-Aug-20 05:31N 37°52' W 124°32'1515.0
2014-Aug-20 04:32N 37°39' W 124°21'1818.0
2014-Aug-20 03:33N 37°25' W 124°09'1818.2
2014-Aug-20 02:33N 37°10' W 123°56'1818.5
2014-Aug-20 01:33N 36°55' W 123°43'7 6.7
2014-Aug-20 00:33N 36°50' W 123°37'1918.9
2014-Aug-19 23:33N 37°06' W 123°50'2319.5
2014-Aug-19 22:21N 37°26' W 124°04'3419.2
2014-Aug-19 20:33N 37°55' W 124°28'1110.8
2014-Aug-19 19:30N 37°46' W 124°19'1111.3
2014-Aug-19 18:33N 37°39' W 124°10'1311.5
2014-Aug-19 17:26N 37°30' W 123°57'1512.9
2014-Aug-19 16:18N 37°21' W 123°42'810.8
2014-Aug-19 15:33N 37°16' W 123°35'1515.0
2014-Aug-19 14:32N 37°27' W 123°48'2015.3
2014-Aug-19 13:15N 37°43' W 124°03'1415.1
2014-Aug-19 12:18N 37°54' W 124°14'1215.1
2014-Aug-19 11:31N 38°03' W 124°24'19 9.6
2014-Aug-19 09:32N 37°49' W 124°08'1713.9
2014-Aug-19 08:20N 37°37' W 123°54'1114.1
2014-Aug-19 07:32N 37°29' W 123°44'1313.5
2014-Aug-19 06:32N 37°18' W 123°34'1616.0
2014-Aug-19 05:33N 37°03' W 123°29'1717.4
2014-Aug-19 04:33N 36°46' W 123°23'1817.4
2014-Aug-19 03:32N 36°29' W 123°17'1717.2
2014-Aug-19 02:33N 36°12' W 123°12'1512.6
2014-Aug-19 01:21N 36°27' W 123°18'1417.6
2014-Aug-19 00:33N 36°41' W 123°21'1917.6
2014-Aug-18 23:30N 36°59' W 123°26'1917.5
2014-Aug-18 22:24N 37°18' W 123°31'1414.9
2014-Aug-18 21:29N 37°27' W 123°18'1212.5
2014-Aug-18 20:33N 37°33' W 123°06'1211.9
2014-Aug-18 19:33N 37°40' W 122°53'1110.8
2014-Aug-18 18:33N 37°45' W 122°41'1010.0
2014-Aug-18 17:33N 37°49' W 122°30'4 4.2
2014-Aug-18 16:33N 37°50' W 122°25'5 4.6
2014-Aug-18 15:33N 37°47' W 122°21'2 2.1
2014-Aug-18 14:33N 37°46' W 122°18'0 0.2
2014-Aug-18 13:33N 37°46' W 122°18'0 0.0
2014-Aug-18 12:33N 37°46' W 122°18'0 0.0
2014-Aug-18 11:33N 37°46' W 122°18'0 0.0
2014-Aug-18 10:33N 37°46' W 122°18'0 0.0
2014-Aug-18 09:33N 37°46' W 122°18'0 0.0
2014-Aug-18 08:33N 37°46' W 122°18'0 0.0
2014-Aug-18 07:33N 37°46' W 122°18'0 0.0
2014-Aug-18 06:33N 37°46' W 122°18'0 0.0
2014-Aug-18 05:33N 37°46' W 122°18'0 0.0
2014-Aug-18 04:33N 37°46' W 122°18'0 0.0
2014-Aug-18 03:33N 37°46' W 122°18'0 0.0
2014-Aug-18 02:33N 37°46' W 122°18'0 0.0
2014-Aug-18 01:33N 37°46' W 122°18'0 0.0
2014-Aug-18 00:33N 37°46' W 122°18'0 0.0
2014-Aug-17 18:33N 37°46' W 122°18'0 0.0
2014-Aug-17 17:33N 37°46' W 122°18'0 0.0
2014-Aug-17 16:33N 37°46' W 122°18'0 0.0
2014-Aug-17 15:33N 37°46' W 122°18'0 0.0
2014-Aug-17 14:33N 37°46' W 122°18'0 0.0
2014-Aug-17 13:33N 37°46' W 122°18'0 0.0
2014-Aug-17 12:33N 37°46' W 122°18'0 0.0
2014-Aug-17 11:33N 37°46' W 122°18'0 0.0
2014-Aug-17 10:33N 37°46' W 122°18'0 0.0
2014-Aug-17 09:33N 37°46' W 122°18'0 0.0
2014-Aug-17 08:33N 37°46' W 122°18'0 0.0
2014-Aug-17 07:33N 37°46' W 122°18'0 0.0
2014-Aug-17 06:33N 37°46' W 122°18'0 0.0
2014-Aug-17 05:33N 37°46' W 122°18'0 0.0
2014-Aug-17 04:33N 37°46' W 122°18'0 0.0
2014-Aug-17 03:33N 37°46' W 122°18'0 0.0
2014-Aug-17 02:33N 37°46' W 122°18'0 0.0
2014-Aug-17 01:33N 37°46' W 122°18'0 0.0
2014-Aug-17 00:33N 37°46' W 122°18'0 0.0
2014-Aug-16 23:33N 37°46' W 122°18'0 0.0
2014-Aug-16 22:33N 37°46' W 122°18'0 0.0
2014-Aug-16 21:33N 37°46' W 122°18'0 0.0
2014-Aug-16 20:33N 37°46' W 122°18'0 0.0
2014-Aug-16 19:33N 37°46' W 122°18'0 0.0
2014-Aug-16 18:33N 37°46' W 122°18'0 0.0
2014-Aug-16 17:33N 37°46' W 122°18'0 0.0
2014-Aug-16 16:33N 37°46' W 122°18'0 0.0
2014-Aug-16 15:33N 37°46' W 122°18'0 0.0
2014-Aug-16 14:33N 37°46' W 122°18'0 0.0
2014-Aug-16 13:33N 37°46' W 122°18'0 0.0
2014-Aug-16 12:33N 37°46' W 122°18'0 0.0
2014-Aug-16 11:33N 37°46' W 122°18'0 0.0
2014-Aug-16 10:33N 37°46' W 122°18'0 0.0
2014-Aug-16 09:33N 37°46' W 122°18'0 0.0
2014-Aug-16 08:33N 37°46' W 122°18'0 0.0
2014-Aug-16 07:33N 37°46' W 122°18'0 0.0
2014-Aug-16 06:33N 37°46' W 122°18'0 0.0
2014-Aug-16 05:33N 37°46' W 122°18'0 0.0
2014-Aug-16 04:33N 37°46' W 122°18'0 0.0
2014-Aug-16 03:33N 37°46' W 122°18'0 0.0
2014-Aug-16 02:33N 37°46' W 122°18'0 0.0
2014-Aug-16 01:33N 37°46' W 122°18'0 0.0
2014-Aug-16 00:33N 37°46' W 122°18'0 0.0
2014-Aug-15 23:33N 37°46' W 122°18'0 0.0
2014-Aug-15 22:33N 37°46' W 122°18'0 0.0
2014-Aug-15 21:33N 37°46' W 122°18'0 0.0
2014-Aug-15 20:33N 37°46' W 122°18'0 0.0
2014-Aug-15 19:33N 37°46' W 122°18'0 0.0
2014-Aug-15 18:33N 37°46' W 122°18'0 0.0
2014-Aug-15 17:33N 37°46' W 122°18'0 0.0
2014-Aug-15 16:33N 37°46' W 122°18'0 0.0
2014-Aug-15 15:33N 37°46' W 122°18'0 0.0
2014-Aug-15 14:33N 37°46' W 122°18'0 0.0
2014-Aug-15 13:33N 37°46' W 122°18'0 0.0
2014-Aug-15 12:33N 37°46' W 122°18'0 0.0
2014-Aug-15 11:33N 37°46' W 122°18'0 0.0
2014-Aug-15 10:33N 37°46' W 122°18'0 0.0
2014-Aug-15 09:33N 37°46' W 122°18'0 0.0
2014-Aug-15 08:33N 37°46' W 122°18'0 0.0
2014-Aug-15 07:33N 37°46' W 122°18'0 0.0
2014-Aug-15 06:33N 37°46' W 122°18'0 0.0
2014-Aug-15 05:33N 37°46' W 122°18'0 0.0
2014-Aug-15 04:33N 37°46' W 122°18'0 0.0
2014-Aug-15 03:33N 37°46' W 122°18'0 0.0
2014-Aug-15 02:33N 37°46' W 122°18'0 0.0
2014-Aug-15 01:33N 37°46' W 122°18'0 0.0
2014-Aug-15 00:33N 37°46' W 122°18'0 0.0
2014-Aug-14 23:33N 37°46' W 122°18'0 0.0
2014-Aug-14 22:33N 37°46' W 122°18'0 0.0
2014-Aug-14 21:33N 37°46' W 122°18'0 0.0
2014-Aug-14 20:33N 37°46' W 122°18'0 0.0
2014-Aug-14 19:33N 37°46' W 122°18'0 0.0
2014-Aug-14 18:33N 37°46' W 122°18'0 0.0
2014-Aug-14 17:33N 37°46' W 122°18'0 0.0
2014-Aug-14 16:33N 37°46' W 122°18'0 0.0
2014-Aug-14 15:33N 37°46' W 122°18'0 0.0
2014-Aug-14 14:33N 37°46' W 122°18'0 0.0
2014-Aug-14 13:33N 37°46' W 122°18'0 0.0
2014-Aug-14 12:33N 37°46' W 122°18'0 0.0
2014-Aug-14 11:33N 37°46' W 122°18'0 0.0
2014-Aug-14 10:33N 37°46' W 122°18'0 0.0
2014-Aug-14 09:33N 37°46' W 122°18'0 0.0
2014-Aug-14 08:33N 37°46' W 122°18'0 0.0
2014-Aug-14 07:33N 37°46' W 122°18'0 0.0
2014-Aug-14 06:33N 37°46' W 122°18'0 0.0
2014-Aug-14 05:33N 37°46' W 122°18'0 0.0
2014-Aug-14 04:33N 37°46' W 122°18'0 0.0
2014-Aug-14 03:33N 37°46' W 122°18'0 0.0
2014-Aug-14 02:33N 37°46' W 122°18'0 0.0
2014-Aug-14 01:33N 37°46' W 122°18'0 0.0
2014-Aug-14 00:33N 37°46' W 122°18'0 0.0
2014-Aug-13 23:33N 37°46' W 122°18'0 0.0
2014-Aug-13 22:33N 37°46' W 122°18'0 0.0
2014-Aug-13 21:33N 37°46' W 122°18'0 0.0
2014-Aug-13 20:33N 37°46' W 122°18'0 0.0
2014-Aug-13 19:33N 37°46' W 122°18'0 0.0
2014-Aug-13 18:33N 37°46' W 122°18'0 0.0
2014-Aug-13 17:33N 37°46' W 122°18'0 0.0
2014-Aug-13 16:33N 37°46' W 122°18'0 0.0
2014-Aug-13 15:33N 37°46' W 122°18'0 0.0
2014-Aug-13 14:33N 37°46' W 122°18'0 0.0
2014-Aug-13 13:33N 37°46' W 122°18'0 0.0
2014-Aug-13 12:33N 37°46' W 122°18'0 0.0
2014-Aug-13 11:33N 37°46' W 122°18'0 0.0
2014-Aug-13 10:33N 37°46' W 122°18'0 0.0
2014-Aug-13 09:33N 37°46' W 122°18'0 0.0
2014-Aug-13 08:33N 37°46' W 122°18'0 0.0
2014-Aug-13 07:33N 37°46' W 122°18'0 0.0
2014-Aug-13 06:33N 37°46' W 122°18'0 0.0
2014-Aug-13 05:33N 37°46' W 122°18'0 0.0
2014-Aug-13 04:33N 37°46' W 122°18'0 0.0
2014-Aug-13 03:33N 37°46' W 122°18'0 0.0
2014-Aug-13 02:33N 37°46' W 122°18'0 0.0
2014-Aug-13 01:33N 37°46' W 122°18'0 0.0
2014-Aug-13 00:33N 37°46' W 122°18'0 0.0
2014-Aug-12 23:33N 37°46' W 122°18'0 0.0
2014-Aug-12 22:33N 37°46' W 122°18'0 0.0
2014-Aug-12 21:33N 37°46' W 122°18'0 0.0
2014-Aug-12 20:33N 37°46' W 122°18'0 0.0
2014-Aug-12 19:33N 37°46' W 122°18'0 0.0
2014-Aug-12 18:33N 37°46' W 122°18'0 0.0
2014-Aug-12 17:33N 37°46' W 122°18'0 0.0
2014-Aug-12 16:33N 37°46' W 122°18'0 0.0
2014-Aug-12 15:33N 37°46' W 122°18'0 0.0
2014-Aug-12 14:33N 37°46' W 122°18'0 0.0
2014-Aug-12 13:33N 37°46' W 122°18'0 0.0
2014-Aug-12 12:33N 37°46' W 122°18'0 0.0
2014-Aug-12 11:33N 37°46' W 122°18'0 0.0
2014-Aug-12 10:33N 37°46' W 122°18'0 0.0
2014-Aug-12 09:33N 37°46' W 122°18'0 0.0
2014-Aug-12 08:33N 37°46' W 122°18'0 0.0
2014-Aug-12 07:33N 37°46' W 122°18'0 0.0
2014-Aug-12 06:33N 37°46' W 122°18'0 0.0
2014-Aug-12 05:33N 37°46' W 122°18'0 0.0
2014-Aug-12 04:33N 37°46' W 122°18'0 0.0
2014-Aug-12 03:33N 37°46' W 122°18'0 0.0
2014-Aug-12 02:33N 37°46' W 122°18'0 0.0
2014-Aug-12 01:33N 37°46' W 122°18'0 0.0
2014-Aug-12 00:33N 37°46' W 122°18'0 0.0
2014-Aug-11 23:33N 37°46' W 122°18'0 0.0
2014-Aug-11 22:33N 37°46' W 122°18'0 0.0
2014-Aug-11 21:33N 37°46' W 122°18'0 0.0
2014-Aug-11 20:33N 37°46' W 122°18'  

Dump ship's entire track history